createdAt,value
2019-05-17T00:00:32.773Z,4.00
2019-05-17T00:01:31.673Z,4.00
2019-05-17T00:02:31.535Z,4.00
2019-05-17T00:03:31.488Z,4.00
2019-05-17T00:04:31.627Z,4.00
2019-05-17T00:05:31.552Z,4.00
2019-05-17T00:06:31.095Z,4.00
2019-05-17T00:07:31.108Z,4.00
2019-05-17T00:08:34.733Z,4.00
2019-05-17T00:09:31.708Z,4.00
2019-05-17T00:10:31.537Z,4.00
2019-05-17T00:12:31.175Z,4.00
2019-05-17T00:13:31.285Z,4.00
2019-05-17T00:14:31.479Z,4.00
2019-05-17T00:16:31.857Z,4.00
2019-05-17T00:19:31.840Z,4.00
2019-05-17T00:20:31.805Z,4.00
2019-05-17T00:21:32.513Z,4.00
2019-05-17T00:22:31.733Z,4.00
2019-05-17T00:23:31.305Z,4.00
2019-05-17T00:26:31.767Z,4.00
2019-05-17T00:27:31.544Z,4.00
2019-05-17T00:32:31.612Z,4.00
2019-05-17T00:33:31.720Z,4.00
2019-05-17T00:34:31.801Z,4.00
2019-05-17T00:36:31.993Z,4.00
2019-05-17T00:37:31.562Z,4.00
2019-05-17T00:38:43.833Z,4.00
2019-05-17T00:39:32.040Z,4.00
2019-05-17T00:40:31.932Z,4.00
2019-05-17T00:41:31.548Z,4.00
2019-05-17T00:43:31.978Z,4.00
2019-05-17T00:44:31.590Z,4.00
2019-05-17T00:45:31.784Z,4.00
2019-05-17T00:46:31.601Z,4.00
2019-05-17T00:47:31.725Z,4.00
2019-05-17T00:48:31.768Z,4.00
2019-05-17T00:49:31.855Z,4.00
2019-05-17T00:50:31.872Z,4.00
2019-05-17T00:51:31.855Z,4.00
2019-05-17T00:54:32.784Z,4.00
2019-05-17T00:55:32.562Z,4.00
2019-05-17T00:56:32.033Z,4.00
2019-05-17T00:57:32.729Z,4.00
2019-05-17T00:58:32.789Z,4.00
2019-05-17T00:59:31.960Z,4.00
2019-05-17T01:00:32.221Z,4.00
2019-05-17T01:01:31.997Z,4.00
2019-05-17T01:02:32.562Z,4.00
2019-05-17T01:03:33.078Z,4.00
2019-05-17T01:04:32.758Z,4.00
2019-05-17T01:08:31.886Z,4.00
2019-05-17T01:09:32.103Z,4.00
2019-05-17T01:10:32.216Z,4.00
2019-05-17T01:11:32.240Z,4.00
2019-05-17T01:12:31.918Z,4.00
2019-05-17T01:14:32.036Z,4.00
2019-05-17T01:15:32.007Z,4.00
2019-05-17T01:16:32.197Z,4.00
2019-05-17T01:17:32.092Z,4.00
2019-05-17T01:18:32.605Z,4.00
2019-05-17T01:19:32.124Z,4.00
2019-05-17T01:23:32.059Z,4.00
2019-05-17T01:24:32.656Z,4.00
2019-05-17T01:25:32.145Z,4.00
2019-05-17T01:26:32.498Z,4.00
2019-05-17T01:27:33.135Z,4.00
2019-05-17T01:29:33.015Z,4.00
2019-05-17T01:30:32.956Z,4.00
2019-05-17T01:32:32.283Z,4.00
2019-05-17T01:33:32.764Z,4.00
2019-05-17T01:34:32.228Z,4.00
2019-05-17T01:36:32.415Z,4.00
2019-05-17T01:37:32.469Z,4.00
2019-05-17T01:38:32.567Z,4.00
2019-05-17T01:39:33.632Z,4.00
2019-05-17T01:40:32.369Z,4.00
2019-05-17T01:42:32.650Z,4.00
2019-05-17T01:44:32.872Z,4.00
2019-05-17T01:45:33.218Z,4.00
2019-05-17T01:46:33.245Z,4.00
2019-05-17T01:48:32.614Z,4.00
2019-05-17T01:49:32.381Z,4.00
2019-05-17T01:50:32.755Z,4.00
2019-05-17T01:51:32.484Z,4.00
2019-05-17T01:52:32.955Z,4.00
2019-05-17T01:53:33.386Z,4.00
2019-05-17T01:54:32.485Z,4.00
2019-05-17T01:55:32.844Z,4.00
2019-05-17T01:56:32.525Z,4.00
2019-05-17T01:57:32.727Z,4.00
2019-05-17T01:58:32.518Z,4.00
2019-05-17T01:59:32.606Z,4.00
2019-05-17T02:01:33.102Z,4.00
2019-05-17T02:02:33.806Z,4.00
2019-05-17T02:03:32.781Z,4.00
2019-05-17T02:04:32.593Z,4.00
2019-05-17T02:05:32.592Z,4.00
2019-05-17T02:06:32.728Z,4.00
2019-05-17T02:07:32.618Z,4.00
2019-05-17T02:08:32.924Z,4.00
2019-05-17T02:10:32.697Z,4.00
2019-05-17T02:11:32.909Z,4.00
2019-05-17T02:12:33.187Z,4.00
2019-05-17T02:13:32.742Z,4.00
2019-05-17T02:14:32.877Z,4.00
2019-05-17T02:15:32.713Z,4.00
2019-05-17T02:16:33.271Z,4.00
2019-05-17T02:17:33.050Z,4.00
2019-05-17T02:18:33.007Z,4.00
2019-05-17T02:19:32.966Z,4.00
2019-05-17T02:21:32.780Z,4.00
2019-05-17T02:22:32.856Z,4.00
2019-05-17T02:23:32.805Z,4.00
2019-05-17T02:24:32.820Z,4.00
2019-05-17T02:25:32.830Z,4.00
2019-05-17T02:26:32.844Z,4.00
2019-05-17T02:27:38.232Z,4.00
2019-05-17T02:28:32.871Z,4.00
2019-05-17T02:29:32.900Z,4.00
2019-05-17T02:30:33.746Z,4.00
2019-05-17T02:31:33.026Z,4.00
2019-05-17T02:32:33.642Z,4.00
2019-05-17T02:33:33.370Z,4.00
2019-05-17T02:34:33.738Z,4.00
2019-05-17T02:36:33.389Z,4.00
2019-05-17T02:37:33.540Z,4.00
2019-05-17T02:38:33.587Z,4.00
2019-05-17T02:39:33.009Z,4.00
2019-05-17T02:40:34.509Z,4.00
2019-05-17T02:41:33.366Z,4.00
2019-05-17T02:42:33.520Z,4.00
2019-05-17T02:43:33.605Z,4.00
2019-05-17T02:44:33.774Z,4.00
2019-05-17T02:45:33.896Z,4.00
2019-05-17T02:46:33.865Z,4.00
2019-05-17T02:47:33.822Z,4.00
2019-05-17T02:48:34.062Z,4.00
2019-05-17T02:51:33.883Z,4.00
2019-05-17T02:52:33.309Z,4.00
2019-05-17T02:53:33.831Z,4.00
2019-05-17T02:54:33.246Z,4.00
2019-05-17T02:55:33.215Z,4.00
2019-05-17T02:56:33.286Z,4.00
2019-05-17T02:57:34.707Z,4.00
2019-05-17T02:58:33.452Z,4.00
2019-05-17T02:59:33.412Z,4.00
2019-05-17T03:00:34.302Z,4.00
2019-05-17T03:01:33.598Z,4.00
2019-05-17T03:02:34.160Z,4.00
2019-05-17T03:03:34.026Z,4.00
2019-05-17T03:04:33.323Z,4.00
2019-05-17T03:06:33.429Z,4.00
2019-05-17T03:07:33.364Z,4.00
2019-05-17T03:08:34.380Z,8.00
2019-05-17T03:09:33.965Z,4.00
2019-05-17T03:11:33.612Z,4.00
2019-05-17T03:12:33.436Z,8.00
2019-05-17T03:14:33.683Z,8.00
2019-05-17T03:15:33.600Z,8.00
2019-05-17T03:16:34.010Z,8.00
2019-05-17T03:17:34.020Z,4.00
2019-05-17T03:18:33.853Z,8.00
2019-05-17T03:20:33.533Z,12.00
2019-05-17T03:21:33.975Z,12.00
2019-05-17T03:22:33.553Z,12.00
2019-05-17T03:23:33.733Z,16.00
2019-05-17T03:24:33.566Z,16.00
2019-05-17T03:25:33.981Z,20.00
2019-05-17T03:26:33.624Z,20.00
2019-05-17T03:27:34.072Z,20.00
2019-05-17T03:28:34.270Z,28.00
2019-05-17T03:29:33.870Z,32.00
2019-05-17T03:30:37.541Z,28.00
2019-05-17T03:31:41.976Z,32.00
2019-05-17T03:33:35.805Z,36.00
2019-05-17T03:37:37.706Z,52.00
2019-05-17T03:38:33.805Z,56.00
2019-05-17T03:41:01.393Z,64.00
2019-05-17T03:41:34.301Z,68.00
2019-05-17T03:43:35.190Z,68.00
2019-05-17T03:44:33.854Z,72.00
2019-05-17T03:45:34.415Z,76.00
2019-05-17T03:46:34.038Z,84.00
2019-05-17T03:47:34.103Z,84.00
2019-05-17T03:48:34.379Z,88.00
2019-05-17T03:49:34.429Z,92.00
2019-05-17T03:50:34.042Z,92.00
2019-05-17T03:51:33.893Z,96.00
2019-05-17T03:52:34.300Z,100.00
2019-05-17T03:53:33.920Z,108.00
2019-05-17T03:54:33.936Z,112.00
2019-05-17T03:55:34.662Z,112.00
2019-05-17T03:56:33.953Z,116.00
2019-05-17T03:58:34.024Z,128.00
2019-05-17T03:59:34.025Z,136.00
2019-05-17T04:01:34.022Z,144.00
2019-05-17T04:02:34.043Z,148.00
2019-05-17T04:03:35.539Z,152.00
2019-05-17T04:04:34.050Z,164.00
2019-05-17T04:05:34.086Z,172.00
2019-05-17T04:06:34.338Z,180.00
2019-05-17T04:07:34.123Z,184.00
2019-05-17T04:08:34.099Z,196.00
2019-05-17T04:09:37.622Z,200.00
2019-05-17T04:11:36.561Z,216.00
2019-05-17T04:12:34.171Z,228.00
2019-05-17T04:13:34.181Z,244.00
2019-05-17T04:14:34.276Z,252.00
2019-05-17T04:15:34.252Z,268.00
2019-05-17T04:16:34.446Z,280.00
2019-05-17T04:17:34.609Z,292.00
2019-05-17T04:18:34.270Z,320.00
2019-05-17T04:19:34.260Z,364.00
2019-05-17T04:20:34.246Z,372.00
2019-05-17T04:21:34.499Z,376.00
2019-05-17T04:22:34.279Z,388.00
2019-05-17T04:23:34.551Z,400.00
2019-05-17T04:24:34.349Z,412.00
2019-05-17T04:25:38.259Z,440.00
2019-05-17T04:26:34.425Z,460.00
2019-05-17T04:27:34.366Z,464.00
2019-05-17T04:28:34.498Z,480.00
2019-05-17T04:29:34.462Z,488.00
2019-05-17T04:30:34.493Z,496.00
2019-05-17T04:31:35.154Z,496.00
2019-05-17T04:32:34.434Z,500.00
2019-05-17T04:33:34.827Z,524.00
2019-05-17T04:34:34.473Z,544.00
2019-05-17T04:35:34.445Z,552.00
2019-05-17T04:36:34.635Z,560.00
2019-05-17T04:37:38.281Z,576.00
2019-05-17T04:38:34.472Z,580.00
2019-05-17T04:39:35.204Z,588.00
2019-05-17T04:40:34.533Z,612.00
2019-05-17T04:41:45.035Z,624.00
2019-05-17T04:42:35.778Z,640.00
2019-05-17T04:43:34.582Z,656.00
2019-05-17T04:44:34.814Z,680.00
2019-05-17T04:45:35.326Z,680.00
2019-05-17T04:46:34.716Z,944.00
2019-05-17T04:47:34.850Z,1084.00
2019-05-17T04:48:35.305Z,1332.00
2019-05-17T04:49:34.620Z,1256.00
2019-05-17T04:50:34.624Z,1052.00
2019-05-17T04:51:35.563Z,1032.00
2019-05-17T04:52:34.808Z,1060.00
2019-05-17T04:53:34.720Z,1080.00
2019-05-17T04:54:34.669Z,1036.00
2019-05-17T04:55:35.657Z,1028.00
2019-05-17T04:56:34.724Z,1164.00
2019-05-17T04:57:34.710Z,1208.00
2019-05-17T04:58:34.939Z,1288.00
2019-05-17T04:59:34.882Z,1352.00
2019-05-17T05:00:35.113Z,1392.00
2019-05-17T05:01:36.629Z,1404.00
2019-05-17T05:02:34.815Z,1412.00
2019-05-17T05:03:34.860Z,1488.00
2019-05-17T05:04:38.253Z,1512.00
2019-05-17T05:05:34.839Z,1548.00
2019-05-17T05:06:35.034Z,1548.00
2019-05-17T05:07:34.837Z,1532.00
2019-05-17T05:08:34.992Z,1580.00
2019-05-17T05:09:34.895Z,1588.00
2019-05-17T05:10:38.482Z,1488.00
2019-05-17T05:11:50.399Z,1644.00
2019-05-17T05:12:34.934Z,1704.00
2019-05-17T05:13:34.965Z,1428.00
2019-05-17T05:14:35.000Z,1700.00
2019-05-17T05:15:34.957Z,1760.00
2019-05-17T05:16:34.975Z,1748.00
2019-05-17T05:17:35.117Z,1756.00
2019-05-17T05:18:35.003Z,1752.00
2019-05-17T05:20:35.000Z,1708.00
2019-05-17T05:21:35.028Z,1744.00
2019-05-17T05:22:35.031Z,1708.00
2019-05-17T05:23:35.049Z,1720.00
2019-05-17T05:24:35.109Z,1452.00
2019-05-17T05:25:35.074Z,1316.00
2019-05-17T05:26:35.316Z,1248.00
2019-05-17T05:27:35.198Z,1244.00
2019-05-17T05:28:35.101Z,1468.00
2019-05-17T05:29:35.150Z,1116.00
2019-05-17T05:30:35.397Z,1064.00
2019-05-17T05:31:35.234Z,1056.00
2019-05-17T05:32:35.317Z,1032.00
2019-05-17T05:33:35.188Z,1028.00
2019-05-17T05:34:35.181Z,1036.00
2019-05-17T05:35:35.188Z,1092.00
2019-05-17T05:36:35.230Z,1192.00
2019-05-17T05:37:35.219Z,1304.00
2019-05-17T05:38:35.245Z,1376.00
2019-05-17T05:39:35.295Z,1392.00
2019-05-17T05:40:35.327Z,1392.00
2019-05-17T05:42:35.357Z,1392.00
2019-05-17T05:43:35.322Z,1408.00
2019-05-17T05:44:35.308Z,1400.00
2019-05-17T05:45:35.327Z,1396.00
2019-05-17T05:46:35.383Z,1392.00
2019-05-17T05:47:35.353Z,1388.00
2019-05-17T05:48:35.412Z,1388.00
2019-05-17T05:49:35.392Z,1428.00
2019-05-17T05:50:35.383Z,1492.00
2019-05-17T05:51:35.396Z,1524.00
2019-05-17T05:53:35.448Z,1528.00
2019-05-17T05:54:35.435Z,1512.00
2019-05-17T05:55:35.499Z,1504.00
2019-05-17T05:56:35.573Z,1552.00
2019-05-17T05:57:35.518Z,1572.00
2019-05-17T05:58:35.488Z,1616.00
2019-05-17T05:59:35.604Z,1604.00
2019-05-17T06:00:35.646Z,1600.00
2019-05-17T06:01:35.521Z,1612.00
2019-05-17T06:02:35.540Z,1684.00
2019-05-17T06:03:35.538Z,1740.00
2019-05-17T06:04:35.552Z,1752.00
2019-05-17T06:05:35.668Z,1732.00
2019-05-17T06:06:35.575Z,1732.00
2019-05-17T06:07:35.594Z,1748.00
2019-05-17T06:08:35.651Z,1816.00
2019-05-17T06:09:35.615Z,1832.00
2019-05-17T06:10:35.642Z,1940.00
2019-05-17T06:11:35.654Z,2068.00
2019-05-17T06:12:35.663Z,2148.00
2019-05-17T06:13:35.800Z,2100.00
2019-05-17T06:14:35.680Z,2052.00
2019-05-17T06:15:35.706Z,2556.00
2019-05-17T06:16:35.721Z,2612.00
2019-05-17T06:17:35.719Z,2132.00
2019-05-17T06:18:35.751Z,2620.00
2019-05-17T06:19:35.744Z,2660.00
2019-05-17T06:20:35.767Z,2164.00
2019-05-17T06:21:35.776Z,2316.00
2019-05-17T06:22:35.783Z,2348.00
2019-05-17T06:23:35.799Z,2276.00
2019-05-17T06:24:35.824Z,1536.00
2019-05-17T06:25:35.827Z,1472.00
2019-05-17T06:26:35.836Z,1492.00
2019-05-17T06:27:35.850Z,1380.00
2019-05-17T06:28:35.969Z,1328.00
2019-05-17T06:29:35.886Z,1344.00
2019-05-17T06:30:36.043Z,1392.00
2019-05-17T06:31:37.112Z,1436.00
2019-05-17T06:33:36.489Z,1628.00
2019-05-17T06:35:36.765Z,1832.00
2019-05-17T06:36:36.067Z,1900.00
2019-05-17T06:38:36.024Z,1920.00
2019-05-17T06:39:36.633Z,1916.00
2019-05-17T06:40:36.028Z,1928.00
2019-05-17T06:41:36.336Z,1920.00
2019-05-17T06:42:41.113Z,1916.00
2019-05-17T06:43:38.501Z,1928.00
2019-05-17T06:46:36.100Z,1904.00
2019-05-17T06:49:36.152Z,1844.00
2019-05-17T06:50:36.163Z,1816.00
2019-05-17T06:51:36.222Z,1804.00
2019-05-17T06:52:36.235Z,1776.00
2019-05-17T06:55:36.275Z,1740.00
2019-05-17T06:56:36.252Z,1772.00
2019-05-17T06:57:36.605Z,1800.00
2019-05-17T06:58:36.259Z,1804.00
2019-05-17T06:59:36.300Z,1808.00
2019-05-17T07:00:36.362Z,1792.00
2019-05-17T07:01:36.471Z,1768.00
2019-05-17T07:02:36.343Z,1772.00
2019-05-17T07:03:36.358Z,1808.00
2019-05-17T07:04:36.345Z,1844.00
2019-05-17T07:05:36.349Z,1856.00
2019-05-17T07:06:36.371Z,1888.00
2019-05-17T07:07:36.448Z,1912.00
2019-05-17T07:08:36.388Z,1924.00
2019-05-17T07:09:36.399Z,1912.00
2019-05-17T07:10:36.417Z,1908.00
2019-05-17T07:11:36.439Z,1904.00
2019-05-17T07:12:36.501Z,1888.00
2019-05-17T07:13:36.461Z,1944.00
2019-05-17T07:14:36.474Z,1940.00
2019-05-17T07:15:44.775Z,1944.00
2019-05-17T07:16:36.499Z,1988.00
2019-05-17T07:17:36.532Z,2052.00
2019-05-17T07:18:36.743Z,2028.00
2019-05-17T07:19:36.541Z,1960.00
2019-05-17T07:20:36.555Z,1904.00
2019-05-17T07:21:36.564Z,1856.00
2019-05-17T07:22:36.587Z,1776.00
2019-05-17T07:23:36.606Z,1716.00
2019-05-17T07:24:36.611Z,1724.00
2019-05-17T07:25:39.742Z,1816.00
2019-05-17T07:26:39.241Z,1940.00
2019-05-17T07:27:41.451Z,2076.00
2019-05-17T07:28:37.480Z,2184.00
2019-05-17T07:29:36.669Z,2228.00
2019-05-17T07:30:36.697Z,2240.00
2019-05-17T07:31:36.701Z,2256.00
2019-05-17T07:32:36.761Z,2464.00
2019-05-17T07:33:36.825Z,2596.00
2019-05-17T07:34:36.896Z,2660.00
2019-05-17T07:35:36.758Z,2740.00
2019-05-17T07:36:36.763Z,2968.00
2019-05-17T07:37:36.777Z,3168.00
2019-05-17T07:38:36.790Z,3312.00
2019-05-17T07:39:39.284Z,3364.00
2019-05-17T07:40:36.825Z,3416.00
2019-05-17T07:41:36.864Z,3352.00
2019-05-17T07:42:39.478Z,3240.00
2019-05-17T07:43:36.877Z,3232.00
2019-05-17T07:44:37.000Z,3168.00
2019-05-17T07:45:36.886Z,3116.00
2019-05-17T07:46:36.908Z,3020.00
2019-05-17T07:47:36.950Z,2944.00
2019-05-17T07:48:36.941Z,2956.00
2019-05-17T07:49:36.957Z,2940.00
2019-05-17T07:50:36.961Z,2984.00
2019-05-17T07:51:39.437Z,3088.00
2019-05-17T07:52:39.561Z,3092.00
2019-05-17T07:53:39.888Z,3076.00
2019-05-17T07:54:37.010Z,3196.00
2019-05-17T07:55:37.023Z,3392.00
2019-05-17T07:56:39.998Z,3488.00
2019-05-17T07:57:37.059Z,3728.00
2019-05-17T07:58:37.067Z,3828.00
2019-05-17T07:59:39.592Z,3664.00
2019-05-17T08:00:51.233Z,3476.00
2019-05-17T08:01:37.208Z,3252.00
2019-05-17T08:02:39.835Z,3096.00
2019-05-17T08:03:37.141Z,2944.00
2019-05-17T08:04:37.177Z,2600.00
2019-05-17T08:05:37.162Z,2308.00
2019-05-17T08:06:39.563Z,2104.00
2019-05-17T08:07:39.579Z,2084.00
2019-05-17T08:08:37.251Z,2084.00
2019-05-17T08:09:37.235Z,2184.00
2019-05-17T08:10:37.235Z,2412.00
2019-05-17T08:11:39.522Z,2924.00
2019-05-17T08:12:38.034Z,3184.00
2019-05-17T08:13:39.685Z,3088.00
2019-05-17T08:14:39.884Z,2716.00
2019-05-17T08:15:39.519Z,2368.00
2019-05-17T08:16:39.380Z,2084.00
2019-05-17T08:17:39.484Z,2084.00
2019-05-17T08:18:37.430Z,2308.00
2019-05-17T08:19:37.361Z,2524.00
2019-05-17T08:20:40.115Z,2548.00
2019-05-17T08:21:39.599Z,2472.00
2019-05-17T08:22:39.809Z,2380.00
2019-05-17T08:23:39.842Z,2304.00
2019-05-17T08:24:39.807Z,2264.00
2019-05-17T08:25:49.602Z,2180.00
2019-05-17T08:26:37.489Z,2048.00
2019-05-17T08:27:40.191Z,1832.00
2019-05-17T08:28:40.210Z,1668.00
2019-05-17T08:29:40.287Z,1504.00
2019-05-17T08:30:40.552Z,1360.00
2019-05-17T08:31:37.627Z,1268.00
2019-05-17T08:32:40.083Z,1220.00
2019-05-17T08:34:39.968Z,1108.00
2019-05-17T08:36:37.603Z,1212.00
2019-05-17T08:37:41.844Z,1352.00
2019-05-17T08:38:39.370Z,1504.00
2019-05-17T08:39:39.795Z,1664.00
2019-05-17T08:40:40.079Z,1764.00
2019-05-17T08:41:40.245Z,1752.00
2019-05-17T08:43:45.354Z,1532.00
2019-05-17T08:44:39.390Z,1572.00
2019-05-17T08:45:40.749Z,1592.00
2019-05-17T08:46:39.523Z,1592.00
2019-05-17T08:47:39.645Z,1752.00
2019-05-17T08:48:39.998Z,2348.00
2019-05-17T08:49:40.173Z,2940.00
2019-05-17T08:50:39.990Z,3132.00
2019-05-17T08:51:39.677Z,3132.00
2019-05-17T08:52:40.308Z,2940.00
2019-05-17T08:53:39.751Z,2796.00
2019-05-17T08:54:42.555Z,2684.00
2019-05-17T08:55:40.557Z,2556.00
2019-05-17T08:56:40.037Z,2352.00
2019-05-17T08:57:39.933Z,2128.00
2019-05-17T08:58:40.163Z,1988.00
2019-05-17T08:59:40.228Z,2140.00
2019-05-17T09:00:40.762Z,2420.00
2019-05-17T09:01:39.249Z,2632.00
2019-05-17T09:02:40.475Z,2792.00
2019-05-17T09:03:37.964Z,2908.00
2019-05-17T09:04:40.341Z,2924.00
2019-05-17T09:05:38.016Z,2948.00
2019-05-17T09:06:39.710Z,2920.00
2019-05-17T09:07:40.256Z,2708.00
2019-05-17T09:08:40.386Z,2560.00
2019-05-17T09:09:39.464Z,2388.00
2019-05-17T09:10:40.476Z,2232.00
2019-05-17T09:11:39.543Z,2432.00
2019-05-17T09:12:40.569Z,2556.00
2019-05-17T09:13:40.111Z,2376.00
2019-05-17T09:14:40.039Z,2112.00
2019-05-17T09:15:39.909Z,1992.00
2019-05-17T09:16:40.065Z,2060.00
2019-05-17T09:17:39.753Z,2104.00
2019-05-17T09:18:39.429Z,1992.00
2019-05-17T09:19:39.461Z,1844.00
2019-05-17T09:20:40.247Z,1648.00
2019-05-17T09:21:39.719Z,1552.00
2019-05-17T09:22:39.626Z,1592.00
2019-05-17T09:23:39.675Z,1724.00
2019-05-17T09:24:39.644Z,1876.00
2019-05-17T09:25:39.813Z,2144.00
2019-05-17T09:26:39.925Z,2472.00
2019-05-17T09:27:40.025Z,2584.00
2019-05-17T09:29:40.394Z,2240.00
2019-05-17T09:31:40.409Z,1928.00
2019-05-17T09:32:40.363Z,1736.00
2019-05-17T09:33:40.430Z,1612.00
2019-05-17T09:34:40.258Z,1524.00
2019-05-17T09:35:40.676Z,1472.00
2019-05-17T09:36:40.652Z,1440.00
2019-05-17T09:37:41.006Z,1428.00
2019-05-17T09:38:40.397Z,1412.00
2019-05-17T09:39:40.146Z,1328.00
2019-05-17T09:40:40.321Z,1408.00
2019-05-17T09:41:39.741Z,1848.00
2019-05-17T09:42:41.260Z,2656.00
2019-05-17T09:43:40.242Z,3600.00
2019-05-17T09:44:40.435Z,4580.00
2019-05-17T09:45:40.325Z,4924.00
2019-05-17T09:46:39.602Z,5108.00
2019-05-17T09:47:39.741Z,5088.00
2019-05-17T09:48:39.686Z,5044.00
2019-05-17T09:49:39.493Z,5212.00
2019-05-17T09:51:39.757Z,5224.00
2019-05-17T09:52:40.642Z,4764.00
2019-05-17T09:53:40.152Z,4408.00
2019-05-17T09:54:44.807Z,4196.00
2019-05-17T09:56:39.515Z,4048.00
2019-05-17T09:57:40.875Z,4208.00
2019-05-17T09:58:39.640Z,3976.00
2019-05-17T09:59:40.571Z,3516.00
2019-05-17T10:00:38.739Z,3112.00
2019-05-17T10:01:39.425Z,2704.00
2019-05-17T10:02:40.140Z,2320.00
2019-05-17T10:03:39.796Z,2180.00
2019-05-17T10:04:39.504Z,2248.00
2019-05-17T10:05:40.662Z,2408.00
2019-05-17T10:06:40.093Z,2552.00
2019-05-17T10:07:40.400Z,2464.00
2019-05-17T10:08:39.357Z,2304.00
2019-05-17T10:09:40.049Z,2108.00
2019-05-17T10:10:40.171Z,1956.00
2019-05-17T10:11:40.011Z,1768.00
2019-05-17T10:12:40.417Z,1672.00
2019-05-17T10:13:38.919Z,1528.00
2019-05-17T10:14:38.947Z,1416.00
2019-05-17T10:15:40.866Z,1320.00
2019-05-17T10:16:38.992Z,1276.00
2019-05-17T10:17:38.996Z,1324.00
2019-05-17T10:18:40.087Z,1348.00
2019-05-17T10:19:40.171Z,1392.00
2019-05-17T10:20:39.886Z,1528.00
2019-05-17T10:21:39.927Z,1708.00
2019-05-17T10:22:40.136Z,2040.00
2019-05-17T10:23:40.655Z,2476.00
2019-05-17T10:24:42.262Z,2924.00
2019-05-17T10:25:39.974Z,3028.00
2019-05-17T10:26:39.115Z,2772.00
2019-05-17T10:27:40.736Z,2468.00
2019-05-17T10:28:39.986Z,2252.00
2019-05-17T10:29:39.520Z,2072.00
2019-05-17T10:30:39.773Z,1952.00
2019-05-17T10:31:39.857Z,1872.00
2019-05-17T10:33:40.080Z,1932.00
2019-05-17T10:34:40.105Z,2152.00
2019-05-17T10:35:40.601Z,2544.00
2019-05-17T10:36:40.113Z,3112.00
2019-05-17T10:37:40.676Z,3736.00
2019-05-17T10:38:39.616Z,4432.00
2019-05-17T10:39:41.619Z,5164.00
2019-05-17T10:40:40.885Z,5612.00
2019-05-17T10:41:40.583Z,5648.00
2019-05-17T10:42:39.822Z,5500.00
2019-05-17T10:43:39.402Z,5244.00
2019-05-17T10:44:46.608Z,4896.00
2019-05-17T10:45:40.136Z,4548.00
2019-05-17T10:46:40.656Z,4340.00
2019-05-17T10:47:39.805Z,4248.00
2019-05-17T10:48:41.055Z,4204.00
2019-05-17T10:49:40.121Z,4144.00
2019-05-17T10:50:40.783Z,4044.00
2019-05-17T10:51:40.271Z,3752.00
2019-05-17T10:52:40.994Z,3436.00
2019-05-17T10:53:40.251Z,3200.00
2019-05-17T10:54:40.262Z,3000.00
2019-05-17T10:55:39.855Z,2788.00
2019-05-17T10:56:39.515Z,2576.00
2019-05-17T10:57:40.005Z,2512.00
2019-05-17T10:58:40.018Z,2520.00
2019-05-17T10:59:39.584Z,2524.00
2019-05-17T11:00:41.249Z,2464.00
2019-05-17T11:01:39.645Z,2348.00
2019-05-17T11:02:39.786Z,2280.00
2019-05-17T11:03:39.889Z,2364.00
2019-05-17T11:04:40.289Z,2500.00
2019-05-17T11:05:40.217Z,2668.00
2019-05-17T11:06:39.976Z,2792.00
2019-05-17T11:07:39.668Z,2784.00
2019-05-17T11:08:39.784Z,2752.00
2019-05-17T11:09:40.430Z,2648.00
2019-05-17T11:10:39.762Z,2756.00
2019-05-17T11:11:39.750Z,2972.00
2019-05-17T11:12:39.765Z,2860.00
2019-05-17T11:13:39.795Z,2424.00
2019-05-17T11:14:50.745Z,1968.00
2019-05-17T11:15:39.810Z,1592.00
2019-05-17T11:16:39.800Z,1448.00
2019-05-17T11:17:39.812Z,1524.00
2019-05-17T11:18:39.869Z,1536.00
2019-05-17T11:19:39.837Z,1456.00
2019-05-17T11:20:40.405Z,1412.00
2019-05-17T11:21:39.869Z,1388.00
2019-05-17T11:22:39.872Z,1436.00
2019-05-17T11:23:39.902Z,1572.00
2019-05-17T11:24:39.911Z,1800.00
2019-05-17T11:25:45.358Z,1944.00
2019-05-17T11:26:39.934Z,1964.00
2019-05-17T11:27:39.994Z,1824.00
2019-05-17T11:28:40.047Z,1656.00
2019-05-17T11:29:40.039Z,1444.00
2019-05-17T11:30:39.991Z,1304.00
2019-05-17T11:31:40.087Z,1216.00
2019-05-17T11:32:40.222Z,1200.00
2019-05-17T11:33:40.216Z,1200.00
2019-05-17T11:34:40.121Z,1292.00
2019-05-17T11:35:40.059Z,1248.00
2019-05-17T11:36:40.065Z,1216.00
2019-05-17T11:37:40.074Z,1156.00
2019-05-17T11:39:40.143Z,1016.00
2019-05-17T11:40:40.116Z,980.00
2019-05-17T11:41:40.158Z,936.00
2019-05-17T11:43:40.455Z,1020.00
2019-05-17T11:44:40.172Z,1160.00
2019-05-17T11:45:40.663Z,1320.00
2019-05-17T11:46:40.209Z,1460.00
2019-05-17T11:47:41.078Z,1564.00
2019-05-17T11:48:40.231Z,1580.00
2019-05-17T11:49:40.301Z,1660.00
2019-05-17T11:50:40.307Z,1856.00
2019-05-17T11:51:40.268Z,1964.00
2019-05-17T11:52:40.280Z,1940.00
2019-05-17T11:53:40.298Z,1832.00
2019-05-17T11:54:40.307Z,1632.00
2019-05-17T11:55:40.326Z,1456.00
2019-05-17T11:56:40.518Z,1384.00
2019-05-17T11:57:40.353Z,1516.00
2019-05-17T11:58:40.589Z,1768.00
2019-05-17T11:59:40.492Z,2020.00
2019-05-17T12:00:40.397Z,2088.00
2019-05-17T12:01:40.405Z,2016.00
2019-05-17T12:03:40.445Z,1716.00
2019-05-17T12:04:40.510Z,1720.00
2019-05-17T12:05:40.456Z,1836.00
2019-05-17T12:06:40.474Z,2008.00
2019-05-17T12:07:40.484Z,2136.00
2019-05-17T12:08:40.512Z,2120.00
2019-05-17T12:09:40.513Z,2116.00
2019-05-17T12:11:41.660Z,2376.00
2019-05-17T12:13:43.526Z,2612.00
2019-05-17T12:14:40.798Z,2580.00
2019-05-17T12:15:44.747Z,2440.00
2019-05-17T12:16:40.621Z,2348.00
2019-05-17T12:17:40.652Z,2320.00
2019-05-17T12:18:40.701Z,2372.00
2019-05-17T12:19:40.707Z,2572.00
2019-05-17T12:20:40.849Z,2892.00
2019-05-17T12:21:40.768Z,3304.00
2019-05-17T12:22:40.908Z,3700.00
2019-05-17T12:23:40.708Z,4040.00
2019-05-17T12:26:40.782Z,4572.00
2019-05-17T12:27:40.890Z,4680.00
2019-05-17T12:28:40.969Z,4756.00
2019-05-17T12:30:40.822Z,4712.00
2019-05-17T12:31:40.933Z,4628.00
2019-05-17T12:32:40.865Z,4500.00
2019-05-17T12:33:40.926Z,4364.00
2019-05-17T12:34:40.880Z,4208.00
2019-05-17T12:35:40.884Z,4084.00
2019-05-17T12:36:40.992Z,3960.00
2019-05-17T12:37:42.497Z,3872.00
2019-05-17T12:38:40.971Z,3800.00
2019-05-17T12:39:40.986Z,3732.00
2019-05-17T12:40:41.637Z,3676.00
2019-05-17T12:41:41.021Z,3648.00
2019-05-17T12:42:40.991Z,3668.00
2019-05-17T12:43:41.067Z,3644.00
2019-05-17T12:44:41.075Z,3628.00
2019-05-17T12:45:41.027Z,3620.00
2019-05-17T12:46:41.036Z,3624.00
2019-05-17T12:47:41.235Z,3660.00
2019-05-17T12:48:41.073Z,3728.00
2019-05-17T12:49:41.098Z,3796.00
2019-05-17T12:50:41.101Z,3832.00
2019-05-17T12:51:41.187Z,3840.00
2019-05-17T12:52:41.125Z,3824.00
2019-05-17T12:53:41.167Z,3800.00
2019-05-17T12:55:41.285Z,3740.00
2019-05-17T12:56:42.766Z,3700.00
2019-05-17T12:57:42.074Z,3664.00
2019-05-17T12:59:41.230Z,3768.00
2019-05-17T13:00:41.313Z,3908.00
2019-05-17T13:01:41.557Z,4028.00
2019-05-17T13:02:41.322Z,4120.00
2019-05-17T13:03:41.349Z,4164.00
2019-05-17T13:04:41.337Z,4140.00
2019-05-17T13:05:41.390Z,4148.00
2019-05-17T13:06:41.363Z,4152.00
2019-05-17T13:07:41.400Z,4120.00
2019-05-17T13:08:41.425Z,4084.00
2019-05-17T13:09:41.424Z,4128.00
2019-05-17T13:10:41.393Z,4220.00
2019-05-17T13:11:41.406Z,4372.00
2019-05-17T13:12:41.415Z,4536.00
2019-05-17T13:13:41.680Z,4720.00
2019-05-17T13:15:41.706Z,5460.00
2019-05-17T13:17:41.498Z,6840.00
2019-05-17T13:19:41.540Z,8644.00
2019-05-17T13:20:41.732Z,9932.00
2019-05-17T13:21:42.132Z,13836.00
2019-05-17T13:22:41.578Z,14240.00
2019-05-17T13:23:42.058Z,13224.00
2019-05-17T13:24:41.587Z,12316.00
2019-05-17T13:25:41.603Z,10592.00
2019-05-17T13:26:41.620Z,9412.00
2019-05-17T13:27:41.634Z,8304.00
2019-05-17T13:28:41.793Z,7592.00
2019-05-17T13:29:41.745Z,7348.00
2019-05-17T13:31:41.783Z,7856.00
2019-05-17T13:32:41.754Z,8272.00
2019-05-17T13:33:41.733Z,8488.00
2019-05-17T13:34:42.621Z,10372.00
2019-05-17T13:35:41.954Z,12016.00
2019-05-17T13:36:42.187Z,10836.00
2019-05-17T13:37:41.793Z,10180.00
2019-05-17T13:38:41.802Z,9148.00
2019-05-17T13:39:41.832Z,8532.00
2019-05-17T13:40:41.841Z,8508.00
2019-05-17T13:41:41.874Z,9144.00
2019-05-17T13:42:41.898Z,9940.00
2019-05-17T13:43:41.889Z,11468.00